createdAt,value
2023-02-16T00:01:46.123Z,100222.22
2023-02-16T00:04:24.679Z,100226.63
2023-02-16T00:06:52.971Z,100228.41
2023-02-16T00:09:20.568Z,100233.16
2023-02-16T00:12:06.743Z,100228.59
2023-02-16T00:14:37.917Z,100222.66
2023-02-16T00:17:05.279Z,100234.88
2023-02-16T00:19:38.059Z,100233.47
2023-02-16T00:22:06.825Z,100237.19
2023-02-16T00:24:33.651Z,100226.31
2023-02-16T00:27:00.788Z,100237.31
2023-02-16T00:29:32.558Z,100240.75
2023-02-16T00:32:01.834Z,100240.84
2023-02-16T00:34:33.233Z,100232.06
2023-02-16T00:37:19.700Z,100237.03
2023-02-16T00:39:48.451Z,100237.81
2023-02-16T00:42:15.106Z,100236.16
2023-02-16T00:44:53.836Z,100238.81
2023-02-16T00:47:37.406Z,100211.91
2023-02-16T00:50:18.483Z,100215.00
2023-02-16T00:52:46.666Z,100212.00
2023-02-16T00:55:16.325Z,100224.59
2023-02-16T00:58:00.192Z,100224.66
2023-02-16T01:00:30.424Z,100228.81
2023-02-16T01:03:00.012Z,100213.31
2023-02-16T01:05:27.082Z,100209.88
2023-02-16T01:08:12.140Z,100204.75
2023-02-16T01:10:58.570Z,100223.44
2023-02-16T01:13:28.572Z,100216.78
2023-02-16T01:15:55.957Z,100216.34
2023-02-16T01:18:22.991Z,100220.25
2023-02-16T01:20:51.268Z,100215.31
2023-02-16T01:23:17.884Z,100210.34
2023-02-16T01:25:44.582Z,100210.72
2023-02-16T01:28:22.939Z,100203.09
2023-02-16T01:30:51.358Z,100196.38
2023-02-16T01:33:18.502Z,100202.78
2023-02-16T01:35:45.483Z,100201.38
2023-02-16T01:38:18.785Z,100192.72
2023-02-16T01:41:25.714Z,100199.78
2023-02-16T01:43:59.796Z,100190.03
2023-02-16T01:46:51.160Z,100192.06
2023-02-16T01:49:20.462Z,100189.50
2023-02-16T01:52:11.947Z,100198.97
2023-02-16T01:54:48.749Z,100188.78
2023-02-16T01:57:30.646Z,100195.09
2023-02-16T01:59:57.183Z,100197.84
2023-02-16T02:02:27.911Z,100192.72
2023-02-16T02:05:37.585Z,100185.38
2023-02-16T02:08:37.452Z,100178.81
2023-02-16T02:11:16.138Z,100185.72
2023-02-16T02:13:56.592Z,100186.28
2023-02-16T02:16:26.157Z,100183.97
2023-02-16T02:18:53.059Z,100181.75
2023-02-16T02:22:06.503Z,100176.25
2023-02-16T02:24:54.370Z,100181.16
2023-02-16T02:27:25.537Z,100190.63
2023-02-16T02:30:11.585Z,100183.53
2023-02-16T02:32:58.689Z,100179.97
2023-02-16T02:35:49.726Z,100191.84
2023-02-16T02:38:50.072Z,100185.56
2023-02-16T02:41:54.764Z,100172.28
2023-02-16T02:44:24.071Z,100177.00
2023-02-16T02:46:51.257Z,100180.97
2023-02-16T02:49:18.862Z,100171.41
2023-02-16T02:51:45.716Z,100175.94
2023-02-16T02:54:37.571Z,100169.41
2023-02-16T02:57:39.435Z,100172.31
2023-02-16T03:00:37.094Z,100170.38
2023-02-16T03:07:43.693Z,100174.09
2023-02-16T03:10:29.520Z,100179.41
2023-02-16T03:12:57.447Z,100174.47
2023-02-16T03:15:26.130Z,100184.53
2023-02-16T03:18:13.966Z,100189.06
2023-02-16T03:21:01.545Z,100187.13
2023-02-16T03:23:47.669Z,100186.56
2023-02-16T03:26:33.862Z,100185.94
2023-02-16T03:29:21.276Z,100176.66
2023-02-16T03:31:49.351Z,100181.44
2023-02-16T03:34:18.089Z,100186.13
2023-02-16T03:36:48.672Z,100179.47
2023-02-16T03:39:15.625Z,100178.25
2023-02-16T03:41:51.618Z,100192.44
2023-02-16T03:44:18.798Z,100191.19
2023-02-16T03:46:45.607Z,100197.91
2023-02-16T03:49:12.353Z,100198.53
2023-02-16T03:51:38.981Z,100202.78
2023-02-16T03:54:05.687Z,100201.81
2023-02-16T03:56:32.300Z,100194.47
2023-02-16T03:58:59.099Z,100188.28
2023-02-16T04:01:25.874Z,100180.63
2023-02-16T04:03:52.745Z,100181.63
2023-02-16T04:06:19.510Z,100174.34
2023-02-16T04:08:46.174Z,100181.19
2023-02-16T04:11:31.260Z,100178.06
2023-02-16T04:13:57.908Z,100191.09
2023-02-16T04:16:24.601Z,100186.13
2023-02-16T04:18:51.321Z,100180.63
2023-02-16T04:21:17.896Z,100184.78
2023-02-16T04:23:44.556Z,100185.78
2023-02-16T04:26:11.164Z,100179.84
2023-02-16T04:28:37.747Z,100177.22
2023-02-16T04:31:04.800Z,100167.91
2023-02-16T04:33:31.630Z,100169.63
2023-02-16T04:35:58.197Z,100168.81
2023-02-16T04:38:26.108Z,100172.72
2023-02-16T04:40:52.714Z,100179.25
2023-02-16T04:43:19.328Z,100176.81
2023-02-16T04:45:46.078Z,100182.66
2023-02-16T04:48:12.802Z,100179.09
2023-02-16T04:50:39.434Z,100178.50
2023-02-16T04:53:07.278Z,100175.13
2023-02-16T04:55:33.906Z,100171.16
2023-02-16T04:58:00.601Z,100171.59
2023-02-16T05:00:27.294Z,100174.50
2023-02-16T05:02:53.957Z,100172.84
2023-02-16T05:05:20.599Z,100173.81
2023-02-16T05:07:47.154Z,100179.75
2023-02-16T05:10:13.802Z,100175.41
2023-02-16T05:12:59.047Z,100180.72
2023-02-16T05:15:25.866Z,100176.56
2023-02-16T05:17:52.525Z,100183.63
2023-02-16T05:20:19.226Z,100177.00
2023-02-16T05:22:46.304Z,100176.56
2023-02-16T05:25:13.330Z,100174.00
2023-02-16T05:27:39.953Z,100184.44
2023-02-16T05:30:07.228Z,100175.75
2023-02-16T05:32:33.839Z,100188.31
2023-02-16T05:35:00.472Z,100186.91
2023-02-16T05:37:27.101Z,100181.16
2023-02-16T05:39:53.865Z,100186.56
2023-02-16T05:42:20.453Z,100190.34
2023-02-16T05:44:47.798Z,100188.78
2023-02-16T05:47:14.466Z,100191.94
2023-02-16T05:49:41.051Z,100194.94
2023-02-16T05:52:07.680Z,100190.97
2023-02-16T05:54:34.692Z,100189.56
2023-02-16T05:57:01.284Z,100196.28
2023-02-16T05:59:27.901Z,100195.22
2023-02-16T06:01:54.766Z,100194.44
2023-02-16T06:04:21.907Z,100200.97
2023-02-16T06:06:48.755Z,100211.22
2023-02-16T06:09:15.488Z,100206.28
2023-02-16T06:11:42.525Z,100197.44
2023-02-16T06:14:18.068Z,100197.50
2023-02-16T06:16:47.528Z,100196.91
2023-02-16T06:19:16.544Z,100199.47
2023-02-16T06:21:43.876Z,100201.13
2023-02-16T06:24:12.534Z,100205.22
2023-02-16T06:26:39.587Z,100194.50
2023-02-16T06:29:06.571Z,100193.38
2023-02-16T06:31:36.056Z,100192.38
2023-02-16T06:34:03.824Z,100192.22
2023-02-16T06:36:30.961Z,100189.28
2023-02-16T06:38:57.569Z,100188.66
2023-02-16T06:41:37.754Z,100206.63
2023-02-16T06:44:13.578Z,100198.94
2023-02-16T06:46:44.417Z,100204.06
2023-02-16T06:49:20.464Z,100203.88
2023-02-16T06:51:49.671Z,100196.00
2023-02-16T06:54:17.077Z,100202.13
2023-02-16T06:56:43.693Z,100194.94
2023-02-16T06:59:12.432Z,100199.44
2023-02-16T07:01:39.073Z,100193.97
2023-02-16T07:04:05.766Z,100196.44
2023-02-16T07:06:32.451Z,100191.91
2023-02-16T07:08:59.392Z,100193.50
2023-02-16T07:11:26.211Z,100187.72
2023-02-16T07:13:52.912Z,100194.00
2023-02-16T07:16:19.554Z,100186.13
2023-02-16T07:18:47.324Z,100174.09
2023-02-16T07:21:15.048Z,100175.75
2023-02-16T07:23:42.751Z,100168.69
2023-02-16T07:26:09.653Z,100163.78
2023-02-16T07:28:36.419Z,100165.38
2023-02-16T07:31:10.682Z,100166.59
2023-02-16T07:33:38.676Z,100177.97
2023-02-16T07:36:06.229Z,100178.78
2023-02-16T07:38:33.370Z,100184.28
2023-02-16T07:40:59.983Z,100198.00
2023-02-16T07:43:26.761Z,100204.19
2023-02-16T07:45:54.105Z,100198.63
2023-02-16T07:48:21.040Z,100201.97
2023-02-16T07:50:47.731Z,100200.03
2023-02-16T07:53:14.401Z,100204.78
2023-02-16T07:55:43.031Z,100204.06
2023-02-16T07:58:09.841Z,100207.47
2023-02-16T08:00:36.673Z,100211.09
2023-02-16T08:03:04.097Z,100207.97
2023-02-16T08:05:34.115Z,100198.13
2023-02-16T08:08:00.750Z,100202.50
2023-02-16T08:10:27.412Z,100212.25
2023-02-16T08:12:54.054Z,100208.94
2023-02-16T08:15:20.807Z,100207.63
2023-02-16T08:17:47.938Z,100206.69
2023-02-16T08:20:14.859Z,100210.34
2023-02-16T08:22:41.543Z,100202.50
2023-02-16T08:25:08.458Z,100208.16
2023-02-16T08:27:35.765Z,100199.50
2023-02-16T08:30:02.484Z,100194.22
2023-02-16T08:32:29.715Z,100189.56
2023-02-16T08:34:57.340Z,100192.38
2023-02-16T08:37:24.777Z,100193.00
2023-02-16T08:39:52.045Z,100195.41
2023-02-16T08:42:18.656Z,100190.50
2023-02-16T08:44:45.339Z,100194.88
2023-02-16T08:47:12.084Z,100191.13
2023-02-16T08:49:39.405Z,100195.28
2023-02-16T08:52:06.478Z,100197.06
2023-02-16T08:54:33.467Z,100195.03
2023-02-16T08:57:02.665Z,100190.84
2023-02-16T08:59:29.428Z,100187.41
2023-02-16T09:02:00.850Z,100181.56
2023-02-16T09:04:29.715Z,100189.66
2023-02-16T09:06:58.142Z,100180.69
2023-02-16T09:09:26.366Z,100183.06
2023-02-16T09:11:53.559Z,100182.06
2023-02-16T09:14:21.479Z,100189.34
2023-02-16T09:16:48.379Z,100181.09
2023-02-16T09:19:17.626Z,100173.63
2023-02-16T09:21:45.099Z,100174.63
2023-02-16T09:24:12.983Z,100178.63
2023-02-16T09:26:42.714Z,100178.34
2023-02-16T09:29:12.421Z,100178.22
2023-02-16T09:31:40.186Z,100185.78
2023-02-16T09:34:20.909Z,100170.34
2023-02-16T09:36:48.047Z,100172.38
2023-02-16T09:39:17.014Z,100162.22
2023-02-16T09:41:59.189Z,100168.81
2023-02-16T09:45:00.896Z,100173.66
2023-02-16T09:47:30.918Z,100166.91
2023-02-16T09:50:00.341Z,100165.09
2023-02-16T09:52:37.372Z,100168.81
2023-02-16T09:55:24.839Z,100176.78
2023-02-16T09:58:22.426Z,100178.03
2023-02-16T10:00:51.245Z,100180.63
2023-02-16T10:03:29.139Z,100167.84
2023-02-16T10:06:14.125Z,100178.19
2023-02-16T10:08:51.228Z,100180.91
2023-02-16T10:11:38.748Z,100183.81
2023-02-16T10:14:37.387Z,100185.75
2023-02-16T10:17:23.944Z,100177.44
2023-02-16T10:19:59.487Z,100177.47
2023-02-16T10:22:34.220Z,100172.91
2023-02-16T10:25:04.777Z,100174.41
2023-02-16T10:27:40.712Z,100172.34
2023-02-16T10:30:19.307Z,100175.06
2023-02-16T10:33:00.689Z,100167.53
2023-02-16T10:35:49.230Z,100164.63
2023-02-16T10:38:43.056Z,100161.34
2023-02-16T10:41:32.980Z,100163.34
2023-02-16T10:44:08.500Z,100157.06
2023-02-16T10:46:41.263Z,100166.50
2023-02-16T10:49:16.786Z,100155.25
2023-02-16T10:51:49.412Z,100153.03
2023-02-16T10:54:32.921Z,100153.31
2023-02-16T10:57:07.382Z,100160.34
2023-02-16T10:59:45.411Z,100147.56
2023-02-16T11:02:18.200Z,100142.00
2023-02-16T11:04:48.580Z,100144.09
2023-02-16T11:07:18.670Z,100140.28
2023-02-16T11:09:48.019Z,100136.81
2023-02-16T11:12:32.446Z,100137.34
2023-02-16T11:15:04.739Z,100147.34
2023-02-16T11:17:33.081Z,100137.94
2023-02-16T11:20:05.509Z,100131.78
2023-02-16T11:22:37.861Z,100132.75
2023-02-16T11:25:33.599Z,100134.19
2023-02-16T11:28:09.541Z,100134.84
2023-02-16T11:30:39.948Z,100127.50
2023-02-16T11:33:28.418Z,100122.66
2023-02-16T11:35:56.982Z,100123.75
2023-02-16T11:38:34.198Z,100122.34
2023-02-16T11:41:03.396Z,100123.28
2023-02-16T11:43:34.611Z,100110.38
2023-02-16T11:46:13.843Z,100107.91
2023-02-16T11:48:40.801Z,100109.44
2023-02-16T11:51:15.191Z,100110.66
2023-02-16T11:53:44.296Z,100102.72
2023-02-16T11:56:23.093Z,100092.28
2023-02-16T11:59:24.405Z,100094.31
2023-02-16T12:02:00.472Z,100094.59
2023-02-16T12:04:29.796Z,100088.84
2023-02-16T12:07:29.770Z,100088.53
2023-02-16T12:10:15.130Z,100091.81
2023-02-16T12:12:51.779Z,100085.88
2023-02-16T12:15:27.524Z,100082.63
2023-02-16T12:18:36.978Z,100081.06
2023-02-16T12:21:17.107Z,100067.63
2023-02-16T12:24:01.856Z,100068.09
2023-02-16T12:26:51.944Z,100067.84
2023-02-16T12:29:37.967Z,100061.22
2023-02-16T12:32:12.596Z,100064.75
2023-02-16T12:35:19.014Z,100058.75
2023-02-16T12:37:53.975Z,100063.38
2023-02-16T12:40:33.635Z,100062.19
2023-02-16T12:43:04.006Z,100061.03
2023-02-16T12:45:36.611Z,100054.28
2023-02-16T12:48:26.185Z,100052.97
2023-02-16T12:50:56.135Z,100056.19
2023-02-16T12:53:36.518Z,100052.84
2023-02-16T12:56:08.469Z,100046.75
2023-02-16T12:58:40.385Z,100045.91
2023-02-16T13:01:15.996Z,100048.28
2023-02-16T13:04:20.248Z,100042.00
2023-02-16T13:07:01.986Z,100032.84
2023-02-16T13:09:44.128Z,100036.50
2023-02-16T13:12:19.594Z,100029.63
2023-02-16T13:14:55.951Z,100032.09
2023-02-16T13:17:33.311Z,100024.03
2023-02-16T13:19:59.908Z,100019.97
2023-02-16T13:22:49.349Z,100029.06
2023-02-16T13:25:44.474Z,100020.78
2023-02-16T13:28:37.024Z,100011.13
2023-02-16T13:31:15.420Z,100017.53
2023-02-16T13:34:07.039Z,100014.94
2023-02-16T13:36:42.906Z,100016.78
2023-02-16T13:39:35.854Z,100016.91
2023-02-16T13:42:41.443Z,100022.94
2023-02-16T13:45:19.663Z,100016.72
2023-02-16T13:47:46.525Z,100018.28
2023-02-16T13:50:24.879Z,100014.66
2023-02-16T13:52:53.180Z,100012.63
2023-02-16T13:55:30.745Z,100012.38
2023-02-16T13:58:05.716Z,100021.56
2023-02-16T14:00:47.882Z,100027.63
2023-02-16T14:03:17.531Z,100023.44
2023-02-16T14:05:53.042Z,100026.06
2023-02-16T14:08:24.260Z,100018.75
2023-02-16T14:10:53.950Z,100021.13
2023-02-16T14:13:38.770Z,100020.34
2023-02-16T14:16:08.635Z,100030.81
2023-02-16T14:19:07.770Z,100019.25
2023-02-16T14:21:37.111Z,100034.41
2023-02-16T14:24:07.438Z,100040.44
2023-02-16T14:26:56.459Z,100041.13
2023-02-16T14:29:30.559Z,100028.81
2023-02-16T14:32:15.755Z,100031.66
2023-02-16T14:35:07.012Z,100034.50
2023-02-16T14:37:42.232Z,100037.56
2023-02-16T14:40:17.371Z,100044.31
2023-02-16T14:42:53.212Z,100037.19
2023-02-16T14:46:05.777Z,100036.31
2023-02-16T14:48:48.418Z,100043.56
2023-02-16T14:51:22.809Z,100040.59
2023-02-16T14:54:09.806Z,100042.63
2023-02-16T14:56:42.073Z,100031.91
2023-02-16T14:59:28.314Z,100041.03
2023-02-16T15:01:55.827Z,100033.44
2023-02-16T15:04:31.171Z,100038.94
2023-02-16T15:07:03.248Z,100035.03
2023-02-16T15:09:33.063Z,100036.81
2023-02-16T15:12:24.062Z,100037.81
2023-02-16T15:15:01.163Z,100031.25
2023-02-16T15:18:00.200Z,100029.84
2023-02-16T15:20:38.508Z,100024.31
2023-02-16T15:23:16.202Z,100034.84
2023-02-16T15:25:42.958Z,100021.41
2023-02-16T15:28:12.531Z,100022.34
2023-02-16T15:30:48.486Z,100021.69
2023-02-16T15:33:24.319Z,100014.25
2023-02-16T15:35:57.330Z,100006.41
2023-02-16T15:38:27.312Z,100020.41
2023-02-16T15:40:55.656Z,100026.97
2023-02-16T15:43:45.533Z,100016.50
2023-02-16T15:46:37.751Z,100020.16
2023-02-16T15:49:14.710Z,100022.78
2023-02-16T15:51:43.135Z,100021.59
2023-02-16T15:54:28.703Z,100015.59
2023-02-16T15:56:58.475Z,100014.41
2023-02-16T15:59:38.541Z,100002.75
2023-02-16T16:02:25.842Z,100019.06
2023-02-16T16:04:58.636Z,100015.16
2023-02-16T16:07:29.198Z,100019.81
2023-02-16T16:09:57.755Z,100023.56
2023-02-16T16:12:25.836Z,100021.88
2023-02-16T16:14:56.867Z,100012.44
2023-02-16T16:17:30.754Z,100027.69
2023-02-16T16:20:17.965Z,100021.84
2023-02-16T16:22:44.908Z,100023.22
2023-02-16T16:25:36.951Z,100018.69
2023-02-16T16:28:11.490Z,100020.72
2023-02-16T16:30:43.874Z,100023.97
2023-02-16T16:33:15.104Z,100021.94
2023-02-16T16:35:48.160Z,100025.91
2023-02-16T16:38:42.606Z,100025.88
2023-02-16T16:41:25.793Z,100022.72
2023-02-16T16:43:56.615Z,100013.56
2023-02-16T16:46:24.536Z,100022.44
2023-02-16T16:48:57.800Z,100023.91
2023-02-16T16:51:24.310Z,100021.75
2023-02-16T16:53:51.814Z,100025.31
2023-02-16T16:56:19.553Z,100019.56
2023-02-16T16:58:53.764Z,100014.41
2023-02-16T17:01:21.640Z,100016.19
2023-02-16T17:03:49.053Z,100018.19
2023-02-16T17:06:18.300Z,100020.88
2023-02-16T17:08:45.409Z,100020.50
2023-02-16T17:11:23.674Z,100013.63
2023-02-16T17:13:51.690Z,100008.66
2023-02-16T17:16:36.524Z,100017.13
2023-02-16T17:19:03.621Z,100005.78
2023-02-16T17:21:30.282Z,100012.22
2023-02-16T17:23:56.910Z,100009.22
2023-02-16T17:26:23.724Z,100012.16
2023-02-16T17:28:50.616Z,100000.78
2023-02-16T17:31:17.494Z,100010.56
2023-02-16T17:33:45.206Z,100009.91
2023-02-16T17:36:16.789Z,100012.28
2023-02-16T17:38:44.706Z,100008.91
2023-02-16T17:41:21.765Z,100002.72
2023-02-16T17:43:49.462Z,100004.97
2023-02-16T17:46:18.176Z,100000.44
2023-02-16T17:48:47.533Z,99995.84
2023-02-16T17:51:18.411Z,99988.72
2023-02-16T17:53:45.354Z,99992.22
2023-02-16T17:56:14.361Z,99991.34
2023-02-16T17:58:41.114Z,99986.06
2023-02-16T18:01:10.343Z,99983.59
2023-02-16T18:03:36.883Z,99995.31
2023-02-16T18:06:03.891Z,99990.94
2023-02-16T18:08:30.772Z,99996.31
2023-02-16T18:11:02.146Z,99998.56
2023-02-16T18:13:29.595Z,100002.50
2023-02-16T18:15:56.625Z,100003.50
2023-02-16T18:18:23.191Z,100006.97
2023-02-16T18:20:50.112Z,100005.31
2023-02-16T18:23:17.175Z,100009.25
2023-02-16T18:25:44.162Z,100008.78
2023-02-16T18:28:14.954Z,100001.88
2023-02-16T18:30:41.693Z,100007.41
2023-02-16T18:33:08.346Z,100009.22
2023-02-16T18:35:34.889Z,100005.69
2023-02-16T18:38:01.813Z,100010.50
2023-02-16T18:40:28.419Z,100010.38
2023-02-16T18:42:56.659Z,100017.63
2023-02-16T18:45:23.704Z,100011.88
2023-02-16T18:47:50.508Z,100007.69
2023-02-16T18:50:17.302Z,100013.97
2023-02-16T18:52:44.927Z,100010.03
2023-02-16T18:55:15.411Z,100008.81
2023-02-16T18:57:42.336Z,100000.03
2023-02-16T19:00:12.027Z,100000.38
2023-02-16T19:02:40.903Z,100000.59
2023-02-16T19:05:09.259Z,100015.47
2023-02-16T19:07:36.182Z,100019.94
2023-02-16T19:10:04.179Z,100023.44
2023-02-16T19:12:30.798Z,100025.94
2023-02-16T19:14:57.463Z,100027.03
2023-02-16T19:17:24.066Z,100027.13
2023-02-16T19:19:50.654Z,100025.94
2023-02-16T19:22:17.324Z,100021.16
2023-02-16T19:24:43.932Z,100026.13
2023-02-16T19:27:10.509Z,100017.34
2023-02-16T19:29:37.103Z,100011.19
2023-02-16T19:32:03.982Z,100006.34
2023-02-16T19:34:30.706Z,100007.13
2023-02-16T19:36:57.219Z,100001.97
2023-02-16T19:39:23.784Z,99997.81
2023-02-16T19:41:50.409Z,99998.72
2023-02-16T19:44:17.286Z,100002.00
2023-02-16T19:46:43.970Z,100004.72
2023-02-16T19:49:13.814Z,99997.38
2023-02-16T19:51:40.846Z,100006.50
2023-02-16T19:54:07.758Z,100000.88
2023-02-16T19:56:36.310Z,100000.44
2023-02-16T19:59:02.980Z,100003.03
2023-02-16T20:01:29.594Z,100010.34
2023-02-16T20:03:57.672Z,100001.00
2023-02-16T20:06:27.405Z,100003.34
2023-02-16T20:08:55.308Z,100005.38
2023-02-16T20:11:25.143Z,100002.22
2023-02-16T20:13:52.711Z,100004.03
2023-02-16T20:16:20.388Z,100007.97
2023-02-16T20:18:47.360Z,100004.47
2023-02-16T20:21:16.918Z,100007.63
2023-02-16T20:23:43.884Z,100007.06
2023-02-16T20:26:14.923Z,100002.69
2023-02-16T20:28:41.804Z,100004.81
2023-02-16T20:31:39.381Z,100006.84
2023-02-16T20:34:07.729Z,99998.97
2023-02-16T20:36:37.147Z,100000.31
2023-02-16T20:39:05.747Z,100002.22
2023-02-16T20:41:32.381Z,100004.69
2023-02-16T20:43:59.552Z,100000.75
2023-02-16T20:46:26.296Z,100007.75
2023-02-16T20:48:53.088Z,99998.63
2023-02-16T20:51:20.188Z,100003.00
2023-02-16T20:53:46.787Z,100005.25
2023-02-16T20:56:16.687Z,100002.41
2023-02-16T20:58:45.843Z,99998.09
2023-02-16T21:01:20.578Z,99996.81
2023-02-16T21:03:47.767Z,99995.81
2023-02-16T21:06:15.892Z,99992.41
2023-02-16T21:08:42.945Z,99990.72
2023-02-16T21:11:10.086Z,99989.69
2023-02-16T21:13:39.509Z,99992.69
2023-02-16T21:16:07.272Z,99989.31
2023-02-16T21:18:34.848Z,99985.69
2023-02-16T21:21:02.312Z,99981.19
2023-02-16T21:23:29.594Z,99981.28
2023-02-16T21:26:00.860Z,99976.72
2023-02-16T21:28:28.026Z,99978.38
2023-02-16T21:30:55.332Z,99970.69
2023-02-16T21:33:22.718Z,99964.69
2023-02-16T21:35:49.328Z,99972.72
2023-02-16T21:38:17.712Z,99970.91
2023-02-16T21:41:03.235Z,99965.41
2023-02-16T21:43:29.862Z,99960.66
2023-02-16T21:46:01.341Z,99951.94
2023-02-16T21:48:46.750Z,99957.91
2023-02-16T21:51:22.239Z,99952.16
2023-02-16T21:53:48.944Z,99962.09
2023-02-16T21:56:29.256Z,99952.25
2023-02-16T21:58:56.917Z,99950.56
2023-02-16T22:01:35.227Z,99946.22
2023-02-16T22:04:03.148Z,99944.97
2023-02-16T22:06:32.655Z,99943.16
2023-02-16T22:09:00.511Z,99940.00
2023-02-16T22:11:27.346Z,99939.47
2023-02-16T22:13:59.126Z,99936.53
2023-02-16T22:16:28.475Z,99942.66
2023-02-16T22:19:07.178Z,99941.00
2023-02-16T22:21:38.611Z,99948.47
2023-02-16T22:24:06.695Z,99941.38
2023-02-16T22:26:35.110Z,99941.31
2023-02-16T22:29:03.474Z,99944.38
2023-02-16T22:31:30.533Z,99936.19
2023-02-16T22:33:59.641Z,99932.91
2023-02-16T22:36:26.822Z,99925.28
2023-02-16T22:38:54.077Z,99938.34
2023-02-16T22:41:21.916Z,99927.25
2023-02-16T22:43:52.084Z,99922.59
2023-02-16T22:46:18.786Z,99933.38
2023-02-16T22:48:45.562Z,99919.34
2023-02-16T22:51:13.821Z,99918.56
2023-02-16T22:53:40.456Z,99920.38
2023-02-16T22:56:09.632Z,99909.44
2023-02-16T22:58:36.895Z,99900.31
2023-02-16T23:01:04.481Z,99893.53
2023-02-16T23:03:31.752Z,99894.63
2023-02-16T23:05:58.331Z,99890.22
2023-02-16T23:08:24.924Z,99883.22
2023-02-16T23:11:00.561Z,99871.78
2023-02-16T23:13:32.419Z,99881.22
2023-02-16T23:16:12.414Z,99871.44
2023-02-16T23:18:39.039Z,99875.06
2023-02-16T23:21:07.725Z,99876.56
2023-02-16T23:23:34.690Z,99870.75
2023-02-16T23:26:01.348Z,99864.72
2023-02-16T23:28:27.956Z,99860.47
2023-02-16T23:30:56.839Z,99865.53
2023-02-16T23:33:23.695Z,99863.31
2023-02-16T23:35:50.608Z,99858.38
2023-02-16T23:38:17.497Z,99857.91
2023-02-16T23:40:44.124Z,99870.09
2023-02-16T23:43:10.777Z,99852.88
2023-02-16T23:45:37.771Z,99855.34
2023-02-16T23:48:04.436Z,99854.03
2023-02-16T23:50:31.004Z,99844.72
2023-02-16T23:52:57.564Z,99845.84
2023-02-16T23:55:24.145Z,99845.84
2023-02-16T23:57:50.667Z,99834.09
